Barbara Foss — WYL4318 — position and weather

sailwx.info

Track history (hours):
 
Tides and Currents Weather Stations Pressure Air Temp Water Temp Dewpoint Dewpoint Depression Visibility Wind Speed Wind Dir Waves Ship Positions

Barbara Foss

Owner: Foss International, Inc, SEATTLE, WA. More information available from US FCC via Universal Licensing System and Coast Guard Vessel Documentation Center.

Last reported at 2016-Apr-22 17:08 UTC. Time now 2016-Apr-29 08:15 UTC.
Position N 47°39' W 122°22'.

Length 40 m; draft 5 m.

Type: Tow > 200 m length. MMSI: 366932130.

Date/timePositionNaut miles runAvg speedWind from/ knotsBaromVisibWave heightAir tempDewpointWater temp
2016-Apr-22 17:08N 47°39' W 122°22'0 0.0
2016-Apr-22 16:33N 47°39' W 122°22'0 0.0
2016-Apr-22 15:33N 47°39' W 122°22'0 0.0
2016-Apr-22 14:33N 47°39' W 122°22'0 0.0
2016-Apr-22 11:33N 47°39' W 122°22'0 0.0
2016-Apr-22 10:33N 47°39' W 122°22'0 0.0
2016-Apr-22 09:33N 47°39' W 122°22'0 0.0
2016-Apr-22 08:33N 47°39' W 122°22'0 0.0
2016-Apr-22 07:33N 47°39' W 122°22'0 0.0
2016-Apr-22 06:34N 47°39' W 122°22'0 0.0
2016-Apr-22 05:34N 47°39' W 122°22'0 0.0
2016-Apr-22 04:33N 47°39' W 122°22'0 0.0
2016-Apr-22 03:33N 47°39' W 122°22'0 0.0
2016-Apr-22 02:33N 47°39' W 122°22'0 0.0
2016-Apr-22 01:32N 47°39' W 122°22'1 1.4
2016-Apr-22 00:33N 47°40' W 122°24'6 5.6
2016-Apr-21 23:33N 47°35' W 122°26'1212.2
2016-Apr-21 22:33N 47°23' W 122°21'7 6.5
2016-Apr-21 21:33N 47°17' W 122°26'3 3.2
2016-Apr-21 20:33N 47°21' W 122°26'8 7.9
2016-Apr-21 19:33N 47°29' W 122°26'10 9.6
2016-Apr-21 18:33N 47°38' W 122°28'9 9.1
2016-Apr-21 17:33N 47°47' W 122°28'8 8.4
2016-Apr-21 16:33N 47°55' W 122°31'7 6.7
2016-Apr-21 15:33N 48°00' W 122°38'16 6.5
2016-Apr-21 13:03N 48°11' W 122°55'5 8.7
2016-Apr-21 12:32N 48°12' W 123°02'9 9.5
2016-Apr-21 11:33N 48°12' W 123°16'1010.1
2016-Apr-21 10:33N 48°12' W 123°31'1010.1
2016-Apr-21 09:33N 48°13' W 123°46'70 5.2
2016-Apr-20 20:12N 47°19' W 124°53'6 9.2
2016-Apr-20 19:31N 47°13' W 124°52'9 9.0
2016-Apr-20 18:29N 47°03' W 124°50'9 8.9
2016-Apr-20 17:29N 46°54' W 124°48'9 9.4
2016-Apr-20 16:33N 46°46' W 124°47'10 9.6
2016-Apr-20 15:33N 46°36' W 124°45'10 9.6
2016-Apr-20 14:33N 46°27' W 124°44'10 9.6
2016-Apr-20 13:33N 46°17' W 124°42'9 8.7
2016-Apr-20 12:33N 46°08' W 124°43'9 9.3
2016-Apr-20 11:33N 45°59' W 124°44'9 9.2
2016-Apr-20 10:33N 45°50' W 124°44'9 9.3
2016-Apr-20 09:33N 45°41' W 124°45'9 9.1
2016-Apr-20 08:33N 45°32' W 124°46'9 9.3
2016-Apr-20 07:33N 45°22' W 124°47'28 9.2
2016-Apr-20 04:32N 44°54' W 124°50'55 9.1
2016-Apr-19 22:32N 43°60' W 124°56'9 8.9
2016-Apr-19 21:33N 43°51' W 124°57'13 9.1
2016-Apr-19 20:08N 43°38' W 124°58'5 9.2
2016-Apr-19 19:33N 43°33' W 124°58'10 9.6
2016-Apr-19 18:33N 43°23' W 124°60'270 9.0
2016-Apr-18 12:31N 38°56' W 124°10'11 8.2
2016-Apr-18 11:09N 38°46' W 124°06'4 7.6
2016-Apr-18 10:33N 38°42' W 124°04'8 8.1
2016-Apr-18 09:33N 38°34' W 124°00'8 8.3
2016-Apr-18 08:33N 38°26' W 123°57'8 8.4
2016-Apr-18 07:33N 38°18' W 123°53'8 8.2
2016-Apr-18 06:33N 38°10' W 123°49'8 8.5
2016-Apr-18 05:33N 38°02' W 123°46'9 9.1
2016-Apr-18 04:33N 37°54' W 123°42'9 9.1
2016-Apr-18 03:33N 37°45' W 123°38'9 9.0
2016-Apr-18 02:33N 37°37' W 123°33'9 8.7
2016-Apr-18 01:33N 37°30' W 123°28'9 8.9
2016-Apr-18 00:33N 37°22' W 123°23'9 8.9
2016-Apr-17 23:33N 37°14' W 123°17'8 8.5
2016-Apr-17 22:33N 37°07' W 123°11'8 7.8
2016-Apr-17 21:33N 37°00' W 123°06'81 8.1
2016-Apr-17 11:33N 35°48' W 122°20'7 7.4
2016-Apr-17 10:33N 35°41' W 122°16'8 7.6
2016-Apr-17 09:33N 35°35' W 122°12'8 8.1
2016-Apr-17 08:33N 35°28' W 122°07'11 7.9
2016-Apr-17 07:09N 35°18' W 122°00'4 7.6
2016-Apr-17 06:33N 35°14' W 121°57'8 7.8
2016-Apr-17 05:33N 35°09' W 121°50'176 7.6
2016-Apr-16 06:27N 33°48' W 118°40'6 6.9
2016-Apr-16 05:33N 33°45' W 118°34'7 6.7
2016-Apr-16 04:33N 33°42' W 118°27'6 6.2
2016-Apr-16 03:33N 33°39' W 118°20'5 4.7
2016-Apr-16 02:33N 33°39' W 118°15'5 5.0
2016-Apr-16 01:33N 33°43' W 118°11'2 2.3
2016-Apr-16 00:31N 33°45' W 118°13'0 0.0
2016-Apr-15 23:32N 33°45' W 118°13'2 0.0
2016-Apr-14 03:28N 33°46' W 118°13'0 0.0
2016-Apr-14 01:30N 33°46' W 118°13'0 0.0
2016-Apr-14 00:33N 33°46' W 118°13'0 0.0
2016-Apr-13 23:34N 33°46' W 118°13'2 1.5
2016-Apr-13 22:33N 33°45' W 118°13'0 0.1
2016-Apr-13 21:32N 33°45' W 118°13'1 1.1
2016-Apr-13 20:32N 33°44' W 118°12'  
Track history (hours):
 
Tides and Currents Weather Stations Pressure Air Temp Water Temp Dewpoint Dewpoint Depression Visibility Wind Speed Wind Dir Waves Ship Positions

Barbara Foss

Owner: Foss International, Inc, SEATTLE, WA. More information available from US FCC via Universal Licensing System and Coast Guard Vessel Documentation Center.

Last reported at 2016-Apr-22 17:08 UTC. Time now 2016-Apr-29 08:15 UTC.
Position N 47°39' W 122°22'.

Length 40 m; draft 5 m.

Type: Tow > 200 m length. MMSI: 366932130.

Date/timePositionNaut miles runAvg speedWind from/ knotsBaromVisibWave heightAir tempDewpointWater temp
2016-Apr-22 17:08N 47°39' W 122°22'0 0.0
2016-Apr-22 16:33N 47°39' W 122°22'0 0.0
2016-Apr-22 15:33N 47°39' W 122°22'0 0.0
2016-Apr-22 14:33N 47°39' W 122°22'0 0.0
2016-Apr-22 11:33N 47°39' W 122°22'0 0.0
2016-Apr-22 10:33N 47°39' W 122°22'0 0.0
2016-Apr-22 09:33N 47°39' W 122°22'0 0.0
2016-Apr-22 08:33N 47°39' W 122°22'0 0.0
2016-Apr-22 07:33N 47°39' W 122°22'0 0.0
2016-Apr-22 06:34N 47°39' W 122°22'0 0.0
2016-Apr-22 05:34N 47°39' W 122°22'0 0.0
2016-Apr-22 04:33N 47°39' W 122°22'0 0.0
2016-Apr-22 03:33N 47°39' W 122°22'0 0.0
2016-Apr-22 02:33N 47°39' W 122°22'0 0.0
2016-Apr-22 01:32N 47°39' W 122°22'1 1.4
2016-Apr-22 00:33N 47°40' W 122°24'6 5.6
2016-Apr-21 23:33N 47°35' W 122°26'1212.2
2016-Apr-21 22:33N 47°23' W 122°21'7 6.5
2016-Apr-21 21:33N 47°17' W 122°26'3 3.2
2016-Apr-21 20:33N 47°21' W 122°26'8 7.9
2016-Apr-21 19:33N 47°29' W 122°26'10 9.6
2016-Apr-21 18:33N 47°38' W 122°28'9 9.1
2016-Apr-21 17:33N 47°47' W 122°28'8 8.4
2016-Apr-21 16:33N 47°55' W 122°31'7 6.7
2016-Apr-21 15:33N 48°00' W 122°38'16 6.5
2016-Apr-21 13:03N 48°11' W 122°55'5 8.7
2016-Apr-21 12:32N 48°12' W 123°02'9 9.5
2016-Apr-21 11:33N 48°12' W 123°16'1010.1
2016-Apr-21 10:33N 48°12' W 123°31'1010.1
2016-Apr-21 09:33N 48°13' W 123°46'70 5.2
2016-Apr-20 20:12N 47°19' W 124°53'6 9.2
2016-Apr-20 19:31N 47°13' W 124°52'9 9.0
2016-Apr-20 18:29N 47°03' W 124°50'9 8.9
2016-Apr-20 17:29N 46°54' W 124°48'9 9.4
2016-Apr-20 16:33N 46°46' W 124°47'10 9.6
2016-Apr-20 15:33N 46°36' W 124°45'10 9.6
2016-Apr-20 14:33N 46°27' W 124°44'10 9.6
2016-Apr-20 13:33N 46°17' W 124°42'9 8.7
2016-Apr-20 12:33N 46°08' W 124°43'9 9.3
2016-Apr-20 11:33N 45°59' W 124°44'9 9.2
2016-Apr-20 10:33N 45°50' W 124°44'9 9.3
2016-Apr-20 09:33N 45°41' W 124°45'9 9.1
2016-Apr-20 08:33N 45°32' W 124°46'9 9.3
2016-Apr-20 07:33N 45°22' W 124°47'28 9.2
2016-Apr-20 04:32N 44°54' W 124°50'55 9.1
2016-Apr-19 22:32N 43°60' W 124°56'9 8.9
2016-Apr-19 21:33N 43°51' W 124°57'13 9.1
2016-Apr-19 20:08N 43°38' W 124°58'5 9.2
2016-Apr-19 19:33N 43°33' W 124°58'10 9.6
2016-Apr-19 18:33N 43°23' W 124°60'270 9.0
2016-Apr-18 12:31N 38°56' W 124°10'11 8.2
2016-Apr-18 11:09N 38°46' W 124°06'4 7.6
2016-Apr-18 10:33N 38°42' W 124°04'8 8.1
2016-Apr-18 09:33N 38°34' W 124°00'8 8.3
2016-Apr-18 08:33N 38°26' W 123°57'8 8.4
2016-Apr-18 07:33N 38°18' W 123°53'8 8.2
2016-Apr-18 06:33N 38°10' W 123°49'8 8.5
2016-Apr-18 05:33N 38°02' W 123°46'9 9.1
2016-Apr-18 04:33N 37°54' W 123°42'9 9.1
2016-Apr-18 03:33N 37°45' W 123°38'9 9.0
2016-Apr-18 02:33N 37°37' W 123°33'9 8.7
2016-Apr-18 01:33N 37°30' W 123°28'9 8.9
2016-Apr-18 00:33N 37°22' W 123°23'9 8.9
2016-Apr-17 23:33N 37°14' W 123°17'8 8.5
2016-Apr-17 22:33N 37°07' W 123°11'8 7.8
2016-Apr-17 21:33N 37°00' W 123°06'81 8.1
2016-Apr-17 11:33N 35°48' W 122°20'7 7.4
2016-Apr-17 10:33N 35°41' W 122°16'8 7.6
2016-Apr-17 09:33N 35°35' W 122°12'8 8.1
2016-Apr-17 08:33N 35°28' W 122°07'11 7.9
2016-Apr-17 07:09N 35°18' W 122°00'4 7.6
2016-Apr-17 06:33N 35°14' W 121°57'8 7.8
2016-Apr-17 05:33N 35°09' W 121°50'176 7.6
2016-Apr-16 06:27N 33°48' W 118°40'6 6.9
2016-Apr-16 05:33N 33°45' W 118°34'7 6.7
2016-Apr-16 04:33N 33°42' W 118°27'6 6.2
2016-Apr-16 03:33N 33°39' W 118°20'5 4.7
2016-Apr-16 02:33N 33°39' W 118°15'5 5.0
2016-Apr-16 01:33N 33°43' W 118°11'2 2.3
2016-Apr-16 00:31N 33°45' W 118°13'0 0.0
2016-Apr-15 23:32N 33°45' W 118°13'2 0.0
2016-Apr-14 03:28N 33°46' W 118°13'0 0.0
2016-Apr-14 01:30N 33°46' W 118°13'0 0.0
2016-Apr-14 00:33N 33°46' W 118°13'0 0.0
2016-Apr-13 23:34N 33°46' W 118°13'2 1.5
2016-Apr-13 22:33N 33°45' W 118°13'0 0.1
2016-Apr-13 21:32N 33°45' W 118°13'1 1.1
2016-Apr-13 20:32N 33°44' W 118°12'  

Dump ship's entire track history